createdAt,value
2018-12-01T00:01:05.856Z,100004.94
2018-12-01T00:03:35.923Z,99999.48
2018-12-01T00:06:06.178Z,100005.97
2018-12-01T00:08:36.721Z,99999.69
2018-12-01T00:11:07.028Z,100000.87
2018-12-01T00:13:37.492Z,99995.06
2018-12-01T00:16:08.953Z,99995.45
2018-12-01T00:18:38.771Z,99991.33
2018-12-01T00:21:08.666Z,99993.16
2018-12-01T00:23:38.926Z,99998.39
2018-12-01T00:26:09.211Z,99992.27
2018-12-01T00:28:39.462Z,99990.00
2018-12-01T00:31:09.531Z,99992.06
2018-12-01T00:33:39.608Z,99986.77
2018-12-01T00:36:09.864Z,99994.53
2018-12-01T00:38:40.218Z,99991.08
2018-12-01T00:41:11.065Z,99987.79
2018-12-01T00:43:41.425Z,99987.92
2018-12-01T00:46:11.730Z,99986.55
2018-12-01T00:48:42.094Z,99991.45
2018-12-01T00:51:12.596Z,99988.58
2018-12-01T00:53:42.545Z,99985.50
2018-12-01T00:56:12.446Z,99989.11
2018-12-01T00:58:43.786Z,99988.20
2018-12-01T01:01:14.788Z,99999.67
2018-12-01T01:03:45.068Z,99995.55
2018-12-01T01:06:15.096Z,99997.10
2018-12-01T01:08:45.466Z,100003.20
2018-12-01T01:11:15.381Z,100003.56
2018-12-01T01:13:45.714Z,100001.14
2018-12-01T01:16:16.153Z,100006.58
2018-12-01T01:18:46.369Z,100007.55
2018-12-01T01:21:16.943Z,100007.22
2018-12-01T01:23:47.647Z,100007.47
2018-12-01T01:26:18.047Z,100010.00
2018-12-01T01:28:48.063Z,100007.06
2018-12-01T01:31:17.899Z,100005.40
2018-12-01T01:33:48.364Z,100011.02
2018-12-01T01:36:18.141Z,100004.59
2018-12-01T01:38:47.878Z,100009.16
2018-12-01T01:41:17.635Z,100008.28
2018-12-01T01:43:47.471Z,100013.69
2018-12-01T01:46:17.326Z,100008.98
2018-12-01T01:48:47.118Z,100005.31
2018-12-01T01:51:16.840Z,100006.16
2018-12-01T01:53:46.975Z,100006.13
2018-12-01T01:56:16.912Z,100003.56
2018-12-01T01:58:48.188Z,100003.44
2018-12-01T02:01:18.298Z,100003.59
2018-12-01T02:03:48.734Z,100001.23
2018-12-01T02:06:18.672Z,99998.06
2018-12-01T02:08:48.942Z,99998.73
2018-12-01T02:11:18.903Z,100002.11
2018-12-01T02:13:49.382Z,99996.31
2018-12-01T02:16:19.653Z,99992.19
2018-12-01T02:18:50.329Z,99988.55
2018-12-01T02:21:20.109Z,99994.10
2018-12-01T02:23:50.142Z,99991.66
2018-12-01T02:26:20.012Z,99995.34
2018-12-01T02:28:49.666Z,99994.30
2018-12-01T02:31:20.053Z,99992.70
2018-12-01T02:33:50.015Z,99988.56
2018-12-01T02:36:20.677Z,99984.39
2018-12-01T02:38:50.405Z,99981.81
2018-12-01T02:41:20.133Z,99987.25
2018-12-01T02:44:06.532Z,99981.56
2018-12-01T02:46:53.166Z,99988.04
2018-12-01T02:49:23.427Z,99995.40
2018-12-01T02:51:53.190Z,99990.22
2018-12-01T02:54:22.952Z,99992.18
2018-12-01T02:56:53.035Z,99994.22
2018-12-01T02:59:22.856Z,99995.20
2018-12-01T03:01:52.935Z,99995.50
2018-12-01T03:04:22.806Z,99990.95
2018-12-01T03:06:52.960Z,99992.55
2018-12-01T03:09:23.006Z,99999.80
2018-12-01T03:11:53.330Z,99992.89
2018-12-01T03:14:23.032Z,100002.05
2018-12-01T03:16:52.721Z,100001.53
2018-12-01T03:19:22.473Z,99999.33
2018-12-01T03:21:52.411Z,99995.66
2018-12-01T03:24:22.326Z,99993.33
2018-12-01T03:26:52.470Z,99991.45
2018-12-01T03:29:22.565Z,99987.26
2018-12-01T03:31:52.459Z,99990.12
2018-12-01T03:34:22.108Z,100001.68
2018-12-01T03:36:52.170Z,100001.73
2018-12-01T03:39:22.730Z,100002.47
2018-12-01T03:41:52.697Z,100005.83
2018-12-01T03:44:22.685Z,100010.45
2018-12-01T03:46:52.553Z,100009.55
2018-12-01T03:49:22.445Z,100000.46
2018-12-01T03:51:52.984Z,100010.91
2018-12-01T03:54:22.714Z,100011.38
2018-12-01T03:56:52.471Z,100013.56
2018-12-01T03:59:22.322Z,100008.66
2018-12-01T04:01:52.509Z,100009.34
2018-12-01T04:04:22.386Z,100009.97
2018-12-01T04:06:52.602Z,100011.46
2018-12-01T04:09:23.956Z,100006.20
2018-12-01T04:11:54.225Z,100004.78
2018-12-01T04:14:24.016Z,99998.14
2018-12-01T04:16:53.840Z,100001.07
2018-12-01T04:19:23.615Z,99994.00
2018-12-01T04:21:53.799Z,99992.19
2018-12-01T04:24:23.975Z,100008.62
2018-12-01T04:26:53.910Z,100006.54
2018-12-01T04:29:24.062Z,100006.64
2018-12-01T04:31:57.141Z,100009.55
2018-12-01T04:34:27.109Z,100004.62
2018-12-01T04:36:56.880Z,100010.96
2018-12-01T04:39:27.100Z,100011.11
2018-12-01T04:41:57.521Z,100019.77
2018-12-01T04:44:27.557Z,100025.06
2018-12-01T04:46:57.636Z,100024.50
2018-12-01T04:49:27.576Z,100026.91
2018-12-01T04:51:57.746Z,100033.11
2018-12-01T04:54:28.019Z,100031.83
2018-12-01T04:56:57.809Z,100030.79
2018-12-01T04:59:27.856Z,100029.61
2018-12-01T05:01:57.694Z,100037.05
2018-12-01T05:04:28.308Z,100034.64
2018-12-01T05:06:58.056Z,100045.19
2018-12-01T05:09:27.779Z,100030.66
2018-12-01T05:11:57.866Z,100035.97
2018-12-01T05:14:27.547Z,100037.41
2018-12-01T05:16:57.439Z,100035.80
2018-12-01T05:19:27.104Z,100040.41
2018-12-01T05:21:56.969Z,100045.26
2018-12-01T05:24:26.902Z,100041.63
2018-12-01T05:26:56.599Z,100033.81
2018-12-01T05:29:26.466Z,100031.80
2018-12-01T05:31:56.331Z,100029.92
2018-12-01T05:34:26.073Z,100024.80
2018-12-01T05:36:56.183Z,100023.17
2018-12-01T05:39:26.109Z,100031.26
2018-12-01T05:41:56.049Z,100032.55
2018-12-01T05:44:25.894Z,100031.75
2018-12-01T05:46:55.597Z,100027.88
2018-12-01T05:49:25.813Z,100028.29
2018-12-01T05:51:55.954Z,100027.50
2018-12-01T05:54:25.740Z,100025.84
2018-12-01T05:56:55.655Z,100025.84
2018-12-01T05:59:26.174Z,100025.34
2018-12-01T06:01:56.106Z,100026.00
2018-12-01T06:04:25.956Z,100027.16
2018-12-01T06:06:55.713Z,100027.69
2018-12-01T06:09:25.435Z,100029.38
2018-12-01T06:11:55.240Z,100034.88
2018-12-01T06:14:25.088Z,100040.48
2018-12-01T06:16:54.960Z,100045.62
2018-12-01T06:19:25.219Z,100044.34
2018-12-01T06:21:54.938Z,100049.23
2018-12-01T06:24:24.751Z,100054.37
2018-12-01T06:26:55.140Z,100049.73
2018-12-01T06:29:24.980Z,100044.80
2018-12-01T06:31:55.353Z,100049.08
2018-12-01T06:34:25.133Z,100048.44
2018-12-01T06:36:54.873Z,100049.12
2018-12-01T06:39:24.932Z,100055.34
2018-12-01T06:41:54.649Z,100053.77
2018-12-01T06:44:24.355Z,100055.01
2018-12-01T06:46:54.554Z,100053.77
2018-12-01T06:49:24.525Z,100054.27
2018-12-01T06:51:54.418Z,100052.73
2018-12-01T06:54:24.495Z,100053.81
2018-12-01T06:56:54.320Z,100059.59
2018-12-01T06:59:24.500Z,100046.77
2018-12-01T07:01:54.661Z,100048.16
2018-12-01T07:04:24.620Z,100048.05
2018-12-01T07:06:54.740Z,100046.41
2018-12-01T07:09:24.881Z,100036.50
2018-12-01T07:11:55.838Z,100039.19
2018-12-01T07:14:26.524Z,100030.83
2018-12-01T07:16:56.848Z,100032.97
2018-12-01T07:19:26.961Z,100040.03
2018-12-01T07:21:56.730Z,100041.77
2018-12-01T07:24:26.870Z,100044.34
2018-12-01T07:26:57.057Z,100048.01
2018-12-01T07:29:26.986Z,100051.64
2018-12-01T07:31:56.821Z,100055.67
2018-12-01T07:34:27.010Z,100054.44
2018-12-01T07:36:57.226Z,100054.07
2018-12-01T07:39:27.554Z,100057.36
2018-12-01T07:41:59.003Z,100058.92
2018-12-01T07:44:29.734Z,100061.14
2018-12-01T07:47:00.313Z,100058.70
2018-12-01T07:49:30.086Z,100060.84
2018-12-01T07:52:00.251Z,100047.15
2018-12-01T07:54:30.056Z,100047.08
2018-12-01T07:56:59.880Z,100038.10
2018-12-01T07:59:29.731Z,100040.09
2018-12-01T08:01:59.473Z,100042.42
2018-12-01T08:04:29.146Z,100041.34
2018-12-01T08:06:59.736Z,100036.84
2018-12-01T08:09:30.346Z,100037.72
2018-12-01T08:12:00.024Z,100038.61
2018-12-01T08:14:30.020Z,100037.59
2018-12-01T08:17:06.494Z,100033.20
2018-12-01T08:19:36.365Z,100026.31
2018-12-01T08:22:06.225Z,100028.84
2018-12-01T08:24:36.199Z,100029.80
2018-12-01T08:27:06.315Z,100036.22
2018-12-01T08:29:36.025Z,100036.84
2018-12-01T08:32:06.735Z,100042.14
2018-12-01T08:34:37.035Z,100045.93
2018-12-01T08:37:07.436Z,100040.72
2018-12-01T08:39:37.189Z,100043.09
2018-12-01T08:42:07.240Z,100046.44
2018-12-01T08:44:36.974Z,100051.22
2018-12-01T08:47:07.128Z,100054.39
2018-12-01T08:49:37.055Z,100050.19
2018-12-01T08:52:07.463Z,100053.84
2018-12-01T08:54:37.400Z,100060.50
2018-12-01T08:57:08.586Z,100057.02
2018-12-01T08:59:39.105Z,100050.19
2018-12-01T09:02:10.146Z,100051.93
2018-12-01T09:04:40.043Z,100055.72
2018-12-01T09:07:10.301Z,100058.47
2018-12-01T09:09:40.279Z,100059.80
2018-12-01T09:12:11.039Z,100066.82
2018-12-01T09:14:41.075Z,100068.67
2018-12-01T09:17:11.215Z,100066.12
2018-12-01T09:19:40.935Z,100073.15
2018-12-01T09:22:11.669Z,100073.15
2018-12-01T09:24:42.244Z,100071.34
2018-12-01T09:27:12.316Z,100070.63
2018-12-01T09:29:42.395Z,100068.46
2018-12-01T09:32:12.525Z,100075.52
2018-12-01T09:34:42.257Z,100067.14
2018-12-01T09:37:12.044Z,100068.66
2018-12-01T09:39:41.782Z,100069.38
2018-12-01T09:42:11.644Z,100069.16
2018-12-01T09:44:41.451Z,100070.09
2018-12-01T09:47:18.318Z,100063.95
2018-12-01T09:49:48.024Z,100063.67
2018-12-01T09:52:17.876Z,100066.61
2018-12-01T09:54:48.169Z,100056.55
2018-12-01T09:57:18.194Z,100052.23
2018-12-01T09:59:48.088Z,100053.75
2018-12-01T10:02:17.964Z,100057.01
2018-12-01T10:04:47.955Z,100059.16
2018-12-01T10:07:17.707Z,100045.57
2018-12-01T10:09:47.618Z,100045.91
2018-12-01T10:12:17.533Z,100048.30
2018-12-01T10:14:47.385Z,100047.94
2018-12-01T10:17:18.059Z,100049.93
2018-12-01T10:19:48.009Z,100046.94
2018-12-01T10:22:18.044Z,100055.32
2018-12-01T10:24:48.012Z,100055.69
2018-12-01T10:27:17.957Z,100049.30
2018-12-01T10:29:47.813Z,100042.39
2018-12-01T10:32:17.730Z,100036.90
2018-12-01T10:34:48.113Z,100022.45
2018-12-01T10:37:18.028Z,100023.98
2018-12-01T10:39:47.746Z,100021.97
2018-12-01T10:42:17.418Z,100020.64
2018-12-01T10:44:47.176Z,100022.47
2018-12-01T10:47:17.068Z,100016.44
2018-12-01T10:49:47.187Z,100005.09
2018-12-01T10:52:16.920Z,100007.20
2018-12-01T10:54:47.015Z,100000.67
2018-12-01T10:57:17.100Z,100003.73
2018-12-01T10:59:47.640Z,100000.13
2018-12-01T11:03:24.519Z,100002.13
2018-12-01T11:05:55.464Z,100003.65
2018-12-01T11:08:25.208Z,100004.64
2018-12-01T11:10:55.631Z,100006.69
2018-12-01T11:13:25.504Z,100004.30
2018-12-01T11:15:55.342Z,100005.63
2018-12-01T11:18:25.148Z,100001.98
2018-12-01T11:20:55.130Z,100001.25
2018-12-01T11:23:25.012Z,100000.21
2018-12-01T11:25:55.409Z,99993.33
2018-12-01T11:28:25.344Z,99985.63
2018-12-01T11:30:55.394Z,99981.02
2018-12-01T11:33:25.899Z,99984.61
2018-12-01T11:35:55.728Z,99987.45
2018-12-01T11:38:25.653Z,99985.07
2018-12-01T11:40:55.443Z,99988.30
2018-12-01T11:43:25.405Z,99988.39
2018-12-01T11:45:55.764Z,99988.23
2018-12-01T11:48:25.917Z,99985.54
2018-12-01T11:50:55.820Z,99976.63
2018-12-01T11:53:25.958Z,99976.36
2018-12-01T11:55:55.986Z,99974.38
2018-12-01T11:58:25.917Z,99980.44
2018-12-01T12:00:55.748Z,99974.12
2018-12-01T12:03:25.754Z,99983.73
2018-12-01T12:05:55.853Z,99974.09
2018-12-01T12:08:27.791Z,99976.34
2018-12-01T12:10:59.013Z,99977.56
2018-12-01T12:13:29.213Z,99976.63
2018-12-01T12:15:59.101Z,99977.16
2018-12-01T12:18:29.060Z,99969.33
2018-12-01T12:20:59.864Z,99962.99
2018-12-01T12:23:29.798Z,99960.95
2018-12-01T12:25:59.639Z,99955.67
2018-12-01T12:28:29.810Z,99957.13
2018-12-01T12:30:59.754Z,99950.03
2018-12-01T12:33:29.793Z,99949.09
2018-12-01T12:35:59.828Z,99947.23
2018-12-01T12:38:29.534Z,99942.24
2018-12-01T12:40:59.455Z,99938.31
2018-12-01T12:43:29.261Z,99942.58
2018-12-01T12:45:59.140Z,99938.52
2018-12-01T12:48:29.165Z,99938.41
2018-12-01T12:50:59.329Z,99933.19
2018-12-01T12:53:29.277Z,99934.76
2018-12-01T12:55:59.338Z,99934.23
2018-12-01T12:58:29.361Z,99935.44
2018-12-01T13:00:59.364Z,99933.23
2018-12-01T13:03:29.324Z,99929.22
2018-12-01T13:05:59.351Z,99926.20
2018-12-01T13:08:29.441Z,99931.77
2018-12-01T13:10:59.397Z,99932.55
2018-12-01T13:13:29.263Z,99920.62
2018-12-01T13:15:59.024Z,99908.20
2018-12-01T13:18:29.213Z,99912.55
2018-12-01T13:20:59.133Z,99912.81
2018-12-01T13:23:29.186Z,99910.60
2018-12-01T13:25:59.162Z,99915.11
2018-12-01T13:28:29.338Z,99907.33
2018-12-01T13:31:01.458Z,99905.45
2018-12-01T13:33:38.090Z,99905.61
2018-12-01T13:36:08.558Z,99906.30
2018-12-01T13:38:39.072Z,99905.35
2018-12-01T13:41:09.099Z,99900.39
2018-12-01T13:43:39.197Z,99899.16
2018-12-01T13:46:09.467Z,99905.77
2018-12-01T13:48:39.696Z,99895.28
2018-12-01T13:51:10.075Z,99888.06
2018-12-01T13:53:40.133Z,99892.77
2018-12-01T13:56:09.947Z,99901.70
2018-12-01T13:58:40.037Z,99901.16
2018-12-01T14:01:09.967Z,99902.13
2018-12-01T14:03:39.882Z,99907.88
2018-12-01T14:06:10.520Z,99904.88
2018-12-01T14:08:40.262Z,99902.11
2018-12-01T14:11:10.217Z,99901.92
2018-12-01T14:13:40.028Z,99897.67
2018-12-01T14:16:10.054Z,99894.84
2018-12-01T14:18:39.981Z,99882.09
2018-12-01T14:21:09.773Z,99886.02
2018-12-01T14:23:39.712Z,99883.19
2018-12-01T14:26:09.512Z,99887.39
2018-12-01T14:28:39.251Z,99885.33
2018-12-01T14:31:09.266Z,99882.97
2018-12-01T14:33:39.000Z,99886.76
2018-12-01T14:36:08.854Z,99883.64
2018-12-01T14:38:38.827Z,99882.33
2018-12-01T14:41:09.002Z,99881.63
2018-12-01T14:43:38.734Z,99885.62
2018-12-01T14:46:08.548Z,99878.78
2018-12-01T14:48:38.326Z,99874.66
2018-12-01T14:51:08.099Z,99871.02
2018-12-01T14:53:37.922Z,99876.59
2018-12-01T14:56:07.988Z,99868.45
2018-12-01T14:58:42.440Z,99863.91
2018-12-01T15:01:07.736Z,99866.91
2018-12-01T15:03:37.724Z,99856.00
2018-12-01T15:06:07.622Z,99853.45
2018-12-01T15:08:37.688Z,99850.52
2018-12-01T15:11:07.884Z,99842.66
2018-12-01T15:13:38.004Z,99836.27
2018-12-01T15:16:07.943Z,99828.48
2018-12-01T15:18:37.802Z,99829.45
2018-12-01T15:21:07.711Z,99827.88
2018-12-01T15:23:37.685Z,99827.17
2018-12-01T15:26:07.720Z,99836.78
2018-12-01T15:28:37.870Z,99829.38
2018-12-01T15:31:08.285Z,99831.59
2018-12-01T15:33:38.421Z,99827.27
2018-12-01T15:36:08.276Z,99823.98
2018-12-01T15:38:38.276Z,99828.11
2018-12-01T15:41:08.520Z,99827.84
2018-12-01T15:43:38.913Z,99821.91
2018-12-01T15:46:08.810Z,99815.39
2018-12-01T15:48:38.710Z,99814.80
2018-12-01T15:51:08.467Z,99807.12
2018-12-01T15:53:38.689Z,99810.94
2018-12-01T15:56:08.786Z,99802.21
2018-12-01T15:58:38.863Z,99800.09
2018-12-01T16:01:09.147Z,99796.13
2018-12-01T16:03:39.074Z,99782.78
2018-12-01T16:06:08.969Z,99782.20
2018-12-01T16:08:39.945Z,99775.87
2018-12-01T16:11:09.905Z,99763.70
2018-12-01T16:13:40.543Z,99769.36
2018-12-01T16:16:10.971Z,99772.75
2018-12-01T16:18:40.982Z,99763.47
2018-12-01T16:21:11.011Z,99759.88
2018-12-01T16:23:40.835Z,99755.84
2018-12-01T16:26:11.239Z,99746.97
2018-12-01T16:28:41.120Z,99741.20
2018-12-01T16:31:10.906Z,99743.52
2018-12-01T16:33:40.785Z,99748.86
2018-12-01T16:36:10.940Z,99762.77
2018-12-01T16:38:41.335Z,99755.11
2018-12-01T16:41:24.542Z,99754.12
2018-12-01T16:43:54.344Z,99745.98
2018-12-01T16:46:24.365Z,99744.20
2018-12-01T16:48:54.305Z,99738.09
2018-12-01T16:51:24.399Z,99735.14
2018-12-01T16:53:54.211Z,99740.45
2018-12-01T16:56:24.118Z,99739.76
2018-12-01T16:58:54.020Z,99733.30
2018-12-01T17:01:23.901Z,99726.13
2018-12-01T17:03:53.717Z,99731.16
2018-12-01T17:06:23.533Z,99724.41
2018-12-01T17:08:55.912Z,99723.14
2018-12-01T17:11:26.507Z,99725.45
2018-12-01T17:13:56.349Z,99722.62
2018-12-01T17:16:26.108Z,99724.44
2018-12-01T17:18:56.096Z,99722.43
2018-12-01T17:21:26.175Z,99720.41
2018-12-01T17:23:56.025Z,99717.84
2018-12-01T17:26:25.875Z,99712.05
2018-12-01T17:28:56.050Z,99715.32
2018-12-01T17:31:25.991Z,99716.33
2018-12-01T17:33:56.126Z,99713.09
2018-12-01T17:36:25.905Z,99711.53
2018-12-01T17:38:55.856Z,99713.31
2018-12-01T17:41:30.014Z,99713.54
2018-12-01T17:44:05.198Z,99710.66
2018-12-01T17:46:35.067Z,99702.47
2018-12-01T17:49:05.061Z,99698.74
2018-12-01T17:51:34.951Z,99689.39
2018-12-01T17:54:13.681Z,99696.77
2018-12-01T17:56:43.741Z,99696.13
2018-12-01T17:59:14.223Z,99703.31
2018-12-01T18:01:44.335Z,99695.77
2018-12-01T18:04:14.745Z,99694.51
2018-12-01T18:06:45.074Z,99693.44
2018-12-01T18:09:14.909Z,99691.69
2018-12-01T18:11:44.812Z,99698.62
2018-12-01T18:14:15.170Z,99694.67
2018-12-01T18:16:45.053Z,99689.72
2018-12-01T18:19:15.365Z,99684.02
2018-12-01T18:21:45.144Z,99686.70
2018-12-01T18:24:15.400Z,99681.98
2018-12-01T18:26:45.128Z,99684.22
2018-12-01T18:29:15.402Z,99675.54
2018-12-01T18:31:45.551Z,99676.19
2018-12-01T18:34:16.962Z,99671.55
2018-12-01T18:36:46.974Z,99662.95
2018-12-01T18:39:19.841Z,99656.80
2018-12-01T18:41:49.723Z,99654.12
2018-12-01T18:44:19.495Z,99648.48
2018-12-01T18:46:49.292Z,99642.63
2018-12-01T18:49:19.135Z,99637.18
2018-12-01T18:51:48.884Z,99630.50
2018-12-01T18:54:18.678Z,99623.50
2018-12-01T18:56:48.495Z,99608.75
2018-12-01T18:59:18.556Z,99605.64
2018-12-01T19:01:51.443Z,99594.06
2018-12-01T19:04:21.214Z,99585.07
2018-12-01T19:06:51.104Z,99572.81
2018-12-01T19:09:20.886Z,99564.72
2018-12-01T19:11:50.619Z,99563.23
2018-12-01T19:14:20.384Z,99556.67
2018-12-01T19:16:50.299Z,99552.17
2018-12-01T19:19:20.265Z,99554.77
2018-12-01T19:21:50.020Z,99548.49
2018-12-01T19:24:20.624Z,99543.48
2018-12-01T19:26:50.498Z,99534.88
2018-12-01T19:29:20.712Z,99528.23
2018-12-01T19:31:50.719Z,99524.81
2018-12-01T19:34:21.139Z,99518.25
2018-12-01T19:36:51.072Z,99522.69
2018-12-01T19:39:21.735Z,99523.16
2018-12-01T19:41:51.951Z,99519.92
2018-12-01T19:44:22.898Z,99514.45
2018-12-01T19:46:52.772Z,99529.02
2018-12-01T19:49:22.685Z,99522.55
2018-12-01T19:51:53.280Z,99521.92
2018-12-01T19:54:24.318Z,99515.36
2018-12-01T19:56:54.170Z,99511.60
2018-12-01T19:59:24.422Z,99505.69
2018-12-01T20:01:54.444Z,99495.70
2018-12-01T20:04:24.419Z,99477.20
2018-12-01T20:06:55.129Z,99473.75
2018-12-01T20:09:25.697Z,99468.97
2018-12-01T20:11:55.609Z,99460.63
2018-12-01T20:14:25.490Z,99464.19
2018-12-01T20:16:57.583Z,99451.31
2018-12-01T20:19:27.402Z,99461.52
2018-12-01T20:21:57.116Z,99457.34
2018-12-01T20:24:26.852Z,99450.55
2018-12-01T20:26:56.538Z,99453.14
2018-12-01T20:29:27.493Z,99459.69
2018-12-01T20:31:57.329Z,99447.25
2018-12-01T20:34:27.470Z,99448.77
2018-12-01T20:37:04.484Z,99444.28
2018-12-01T20:39:38.939Z,99432.11
2018-12-01T20:42:08.873Z,99430.71
2018-12-01T20:44:38.893Z,99430.05
2018-12-01T20:47:08.795Z,99424.97
2018-12-01T20:49:38.722Z,99421.73
2018-12-01T20:52:08.720Z,99429.82
2018-12-01T20:54:42.606Z,99417.65
2018-12-01T20:57:18.164Z,99412.44
2018-12-01T20:59:48.579Z,99398.28
2018-12-01T21:02:18.871Z,99395.05
2018-12-01T21:04:48.934Z,99395.73
2018-12-01T21:07:19.333Z,99400.28
2018-12-01T21:09:49.102Z,99394.27
2018-12-01T21:12:19.262Z,99392.63
2018-12-01T21:14:49.006Z,99382.30
2018-12-01T21:17:20.868Z,99384.61
2018-12-01T21:19:51.153Z,99387.48
2018-12-01T21:22:21.098Z,99373.85
2018-12-01T21:24:51.163Z,99364.79
2018-12-01T21:27:21.024Z,99367.16
2018-12-01T21:29:50.916Z,99364.09
2018-12-01T21:32:21.103Z,99352.80
2018-12-01T21:34:51.077Z,99351.41
2018-12-01T21:37:21.245Z,99352.58
2018-12-01T21:39:52.693Z,99355.23
2018-12-01T21:42:22.772Z,99357.51
2018-12-01T21:44:53.508Z,99353.52
2018-12-01T21:47:23.388Z,99351.63
2018-12-01T21:49:53.180Z,99342.36
2018-12-01T21:52:23.261Z,99347.95
2018-12-01T21:54:54.187Z,99340.38
2018-12-01T21:57:24.823Z,99336.91
2018-12-01T21:59:55.013Z,99330.65
2018-12-01T22:02:25.300Z,99325.84
2018-12-01T22:04:55.706Z,99325.71
2018-12-01T22:07:26.646Z,99330.86
2018-12-01T22:09:56.657Z,99326.73
2018-12-01T22:12:26.862Z,99322.84
2018-12-01T22:14:56.777Z,99317.31
2018-12-01T22:17:26.847Z,99313.77
2018-12-01T22:19:56.884Z,99305.09
2018-12-01T22:22:27.131Z,99307.60
2018-12-01T22:24:57.611Z,99300.98
2018-12-01T22:27:27.615Z,99304.16
2018-12-01T22:29:57.678Z,99305.67
2018-12-01T22:32:28.127Z,99293.17
2018-12-01T22:34:58.295Z,99296.63
2018-12-01T22:37:29.197Z,99300.31
2018-12-01T22:39:59.147Z,99304.95
2018-12-01T22:42:29.145Z,99297.80
2018-12-01T22:44:59.365Z,99293.91
2018-12-01T22:47:29.285Z,99294.20
2018-12-01T22:49:59.361Z,99289.94
2018-12-01T22:52:29.421Z,99294.11
2018-12-01T22:54:59.474Z,99287.95
2018-12-01T22:57:29.310Z,99286.69
2018-12-01T22:59:59.328Z,99289.05
2018-12-01T23:02:29.457Z,99279.03
2018-12-01T23:04:59.398Z,99281.11
2018-12-01T23:07:29.335Z,99272.69
2018-12-01T23:09:59.094Z,99267.39
2018-12-01T23:12:28.934Z,99271.02
2018-12-01T23:14:58.787Z,99271.25
2018-12-01T23:17:28.778Z,99263.77
2018-12-01T23:19:59.167Z,99260.36
2018-12-01T23:22:28.931Z,99262.25
2018-12-01T23:24:58.830Z,99257.53
2018-12-01T23:27:28.637Z,99255.27
2018-12-01T23:29:58.796Z,99254.44
2018-12-01T23:32:28.686Z,99245.50
2018-12-01T23:34:58.619Z,99245.08
2018-12-01T23:37:28.802Z,99240.00
2018-12-01T23:39:58.856Z,99241.25
2018-12-01T23:42:28.593Z,99238.31
2018-12-01T23:44:58.526Z,99230.77
2018-12-01T23:47:28.457Z,99221.95
2018-12-01T23:49:58.291Z,99215.94
2018-12-01T23:52:28.081Z,99213.00
2018-12-01T23:54:57.771Z,99214.84
2018-12-01T23:57:27.606Z,99207.37
2018-12-01T23:59:57.291Z,99212.31
